Coupeville, WA (98239)

12:19 PM PDT on August 30, 2015 (GMT -0700)
Coupeville | | Change Station
CLOSE
Current Station
Personal Weather Station
Location: Coupeville, WA
Elevation: 95 ft
Nearby Weather Stations

Elev 95 ft 48.22 °N, 122.69 °W | Updated 15 seconds ago

Mostly Cloudy
Mostly Cloudy
65.5 °F
Feels Like 65.5 °F
N
6.9
Wind Variable Wind from SSE
Gusts 6.9 mph

Today
High -- | Low -- °F
--% Chance of Precip.
Yesterday
High -- | Low -- °F
Precip. -- in
6:25 AM 7:55 PM
Full, 98% visible
Pressure 29.92 in
Visibility 10.0 miles
Clouds Few 1500 ft
Scattered Clouds 8500 ft
Scattered Clouds 25000 ft
Dew Point 56 °F
Humidity 72%
Rainfall 0.18 in
Snow Depth Not available.
UV 5 out of 12
Pollen .50 out of 12
Air Quality Not available.
Flu Activity Not available.
METAR KNUW 301856Z 15015KT 10SM FEW015 SCT085 SCT250 18/12 A2992 RMK AO2 SLP132 T01830122
Pressure 29.92 in
Visibility 10.0 miles
Clouds Few 1500 ft
Scattered Clouds 8500 ft
Scattered Clouds 25000 ft
Dew Point 56 °F
Humidity 72%
Rainfall 0.18 in
Snow Depth Not available.
UV 5 out of 12
Pollen .50 out of 12
Air Quality Not available.
Flu Activity Not available.
METAR KNUW 301856Z 15015KT 10SM FEW015 SCT085 SCT250 18/12 A2992 RMK AO2 SLP132 T01830122

10-Day Weather Forecast

×

Almanac

Astronomy

Aug. 30, 2015 Rise Set
Actual Time
Civil Twilight
Nautical Twilight
Astronomical Twilight
Moon
Length of Visible Light
Length of Day
Tomorrow will be .
, % of the Moon is Illuminated

Today's Extremes

State Highs State Lows

Community

WunderPhotos

Upload Photos

1,851,036 photos uploaded!

WunderBlogs® & News

Nearby

Air Quality

  Air Quality AQ Index Pollutant
Not available.

Snow Depth

Station Depth Elevation

Earthquake Activity

City Distance Mag. Time & Date
Minimum magnitude displayed is 2.5.

Coastal Water Temperatures

Place Temperature

Stations

Nearby Weather Stations

Station Location Temp. Windchill Dew Point Humidity Wind Precip. Elev Updated Type